sensor_id;sensor_type;location;lat;lon;timestamp;P1;durP1;ratioP1;P2;durP2;ratioP2
59207;SDS011;44977;53.132;6.408;2022-11-20T00:04:23;26.95;;;23.05;;
59207;SDS011;44977;53.132;6.408;2022-11-20T00:09:24;24.98;;;22.27;;
59207;SDS011;44977;53.132;6.408;2022-11-20T00:14:25;26.08;;;22.85;;
59207;SDS011;44977;53.132;6.408;2022-11-20T00:19:25;24.45;;;21.63;;
59207;SDS011;44977;53.132;6.408;2022-11-20T00:24:26;23.52;;;20.60;;
59207;SDS011;44977;53.132;6.408;2022-11-20T00:29:27;23.20;;;20.00;;
59207;SDS011;44977;53.132;6.408;2022-11-20T00:34:27;22.75;;;20.23;;
59207;SDS011;44977;53.132;6.408;2022-11-20T00:39:28;24.58;;;20.58;;
59207;SDS011;44977;53.132;6.408;2022-11-20T00:44:28;22.92;;;19.67;;
59207;SDS011;44977;53.132;6.408;2022-11-20T00:49:29;24.15;;;19.52;;
59207;SDS011;44977;53.132;6.408;2022-11-20T00:54:30;24.75;;;19.95;;
59207;SDS011;44977;53.132;6.408;2022-11-20T00:59:30;23.98;;;20.20;;
59207;SDS011;44977;53.132;6.408;2022-11-20T01:04:31;23.17;;;20.08;;
59207;SDS011;44977;53.132;6.408;2022-11-20T01:09:32;23.48;;;20.55;;
59207;SDS011;44977;53.132;6.408;2022-11-20T01:14:32;25.10;;;21.88;;
59207;SDS011;44977;53.132;6.408;2022-11-20T01:19:33;24.05;;;20.83;;
59207;SDS011;44977;53.132;6.408;2022-11-20T01:24:34;23.92;;;19.88;;
59207;SDS011;44977;53.132;6.408;2022-11-20T01:29:34;22.10;;;19.55;;
59207;SDS011;44977;53.132;6.408;2022-11-20T01:34:35;22.42;;;18.88;;
59207;SDS011;44977;53.132;6.408;2022-11-20T01:39:36;21.85;;;19.00;;
59207;SDS011;44977;53.132;6.408;2022-11-20T01:44:43;21.67;;;19.38;;
59207;SDS011;44977;53.132;6.408;2022-11-20T01:50:11;21.00;;;18.67;;
59207;SDS011;44977;53.132;6.408;2022-11-20T01:55:20;22.58;;;18.73;;
59207;SDS011;44977;53.132;6.408;2022-11-20T02:00:25;22.23;;;18.75;;
59207;SDS011;44977;53.132;6.408;2022-11-20T02:10:52;20.75;;;17.27;;
59207;SDS011;44977;53.132;6.408;2022-11-20T02:15:53;22.20;;;19.23;;
59207;SDS011;44977;53.132;6.408;2022-11-20T02:20:55;21.05;;;18.77;;
59207;SDS011;44977;53.132;6.408;2022-11-20T02:26:01;22.00;;;18.77;;
59207;SDS011;44977;53.132;6.408;2022-11-20T02:31:04;21.70;;;19.02;;
59207;SDS011;44977;53.132;6.408;2022-11-20T02:36:05;22.33;;;19.88;;
59207;SDS011;44977;53.132;6.408;2022-11-20T02:41:08;21.27;;;18.98;;
59207;SDS011;44977;53.132;6.408;2022-11-20T02:46:09;21.35;;;19.00;;
59207;SDS011;44977;53.132;6.408;2022-11-20T02:51:09;22.42;;;20.00;;
59207;SDS011;44977;53.132;6.408;2022-11-20T02:56:10;21.92;;;19.52;;
59207;SDS011;44977;53.132;6.408;2022-11-20T03:01:11;21.90;;;19.10;;
59207;SDS011;44977;53.132;6.408;2022-11-20T03:06:11;21.55;;;19.08;;
59207;SDS011;44977;53.132;6.408;2022-11-20T03:11:12;22.13;;;18.83;;
59207;SDS011;44977;53.132;6.408;2022-11-20T03:16:15;21.70;;;18.52;;
59207;SDS011;44977;53.132;6.408;2022-11-20T03:21:17;20.92;;;18.10;;
59207;SDS011;44977;53.132;6.408;2022-11-20T03:26:19;21.95;;;18.33;;
59207;SDS011;44977;53.132;6.408;2022-11-20T03:31:30;20.52;;;18.00;;
59207;SDS011;44977;53.132;6.408;2022-11-20T03:36:32;20.30;;;16.77;;
59207;SDS011;44977;53.132;6.408;2022-11-20T03:41:37;19.55;;;16.67;;
59207;SDS011;44977;53.132;6.408;2022-11-20T03:46:39;18.55;;;15.98;;
59207;SDS011;44977;53.132;6.408;2022-11-20T03:51:39;18.70;;;16.42;;
59207;SDS011;44977;53.132;6.408;2022-11-20T03:56:40;18.73;;;16.27;;
59207;SDS011;44977;53.132;6.408;2022-11-20T04:01:41;18.88;;;16.05;;
59207;SDS011;44977;53.132;6.408;2022-11-20T04:06:41;19.33;;;15.82;;
59207;SDS011;44977;53.132;6.408;2022-11-20T04:11:42;18.58;;;15.63;;
59207;SDS011;44977;53.132;6.408;2022-11-20T04:16:43;16.65;;;14.20;;
59207;SDS011;44977;53.132;6.408;2022-11-20T04:21:44;17.60;;;14.85;;
59207;SDS011;44977;53.132;6.408;2022-11-20T04:26:44;16.95;;;14.15;;
59207;SDS011;44977;53.132;6.408;2022-11-20T04:31:45;16.63;;;13.85;;
59207;SDS011;44977;53.132;6.408;2022-11-20T04:36:46;18.48;;;13.75;;
59207;SDS011;44977;53.132;6.408;2022-11-20T04:41:46;18.80;;;14.05;;
59207;SDS011;44977;53.132;6.408;2022-11-20T04:46:47;16.90;;;13.77;;
59207;SDS011;44977;53.132;6.408;2022-11-20T04:51:48;17.08;;;13.77;;
59207;SDS011;44977;53.132;6.408;2022-11-20T04:56:49;17.83;;;14.18;;
59207;SDS011;44977;53.132;6.408;2022-11-20T05:01:50;17.98;;;13.38;;
59207;SDS011;44977;53.132;6.408;2022-11-20T05:06:50;15.88;;;13.57;;
59207;SDS011;44977;53.132;6.408;2022-11-20T05:11:51;16.77;;;13.80;;
59207;SDS011;44977;53.132;6.408;2022-11-20T05:16:51;18.05;;;12.82;;
59207;SDS011;44977;53.132;6.408;2022-11-20T05:21:52;16.15;;;13.60;;
59207;SDS011;44977;53.132;6.408;2022-11-20T05:26:53;16.73;;;13.48;;
59207;SDS011;44977;53.132;6.408;2022-11-20T05:31:53;16.00;;;13.43;;
59207;SDS011;44977;53.132;6.408;2022-11-20T05:36:54;15.38;;;12.77;;
59207;SDS011;44977;53.132;6.408;2022-11-20T05:41:55;16.38;;;12.75;;
59207;SDS011;44977;53.132;6.408;2022-11-20T05:47:14;16.08;;;13.85;;
59207;SDS011;44977;53.132;6.408;2022-11-20T05:52:15;14.55;;;12.45;;
59207;SDS011;44977;53.132;6.408;2022-11-20T05:57:15;15.13;;;12.82;;
59207;SDS011;44977;53.132;6.408;2022-11-20T06:02:16;16.55;;;13.35;;
59207;SDS011;44977;53.132;6.408;2022-11-20T06:07:17;15.82;;;13.70;;
59207;SDS011;44977;53.132;6.408;2022-11-20T06:12:18;17.08;;;13.43;;
59207;SDS011;44977;53.132;6.408;2022-11-20T06:17:18;18.42;;;13.75;;
59207;SDS011;44977;53.132;6.408;2022-11-20T06:22:19;17.05;;;13.35;;
59207;SDS011;44977;53.132;6.408;2022-11-20T06:27:19;16.88;;;13.52;;
59207;SDS011;44977;53.132;6.408;2022-11-20T06:32:20;15.93;;;13.30;;
59207;SDS011;44977;53.132;6.408;2022-11-20T06:37:21;18.08;;;13.15;;
59207;SDS011;44977;53.132;6.408;2022-11-20T06:42:21;15.77;;;12.80;;
59207;SDS011;44977;53.132;6.408;2022-11-20T06:47:22;17.25;;;13.05;;
59207;SDS011;44977;53.132;6.408;2022-11-20T06:52:23;15.82;;;13.52;;
59207;SDS011;44977;53.132;6.408;2022-11-20T06:57:23;15.68;;;12.85;;
59207;SDS011;44977;53.132;6.408;2022-11-20T07:02:25;14.88;;;12.32;;
59207;SDS011;44977;53.132;6.408;2022-11-20T07:07:25;17.58;;;13.45;;
59207;SDS011;44977;53.132;6.408;2022-11-20T07:12:26;16.23;;;13.77;;
59207;SDS011;44977;53.132;6.408;2022-11-20T07:17:26;16.40;;;13.50;;
59207;SDS011;44977;53.132;6.408;2022-11-20T07:22:27;16.63;;;13.15;;
59207;SDS011;44977;53.132;6.408;2022-11-20T07:27:28;17.45;;;14.00;;
59207;SDS011;44977;53.132;6.408;2022-11-20T07:32:29;16.08;;;13.32;;
59207;SDS011;44977;53.132;6.408;2022-11-20T07:37:30;17.85;;;13.35;;
59207;SDS011;44977;53.132;6.408;2022-11-20T07:42:33;16.08;;;13.55;;
59207;SDS011;44977;53.132;6.408;2022-11-20T07:47:34;16.75;;;13.60;;
59207;SDS011;44977;53.132;6.408;2022-11-20T07:52:36;15.85;;;13.13;;
59207;SDS011;44977;53.132;6.408;2022-11-20T07:57:37;16.30;;;13.35;;
59207;SDS011;44977;53.132;6.408;2022-11-20T08:02:40;15.65;;;13.10;;
59207;SDS011;44977;53.132;6.408;2022-11-20T08:07:42;15.98;;;14.10;;
59207;SDS011;44977;53.132;6.408;2022-11-20T08:12:44;15.77;;;12.95;;
59207;SDS011;44977;53.132;6.408;2022-11-20T08:18:08;15.75;;;13.02;;
59207;SDS011;44977;53.132;6.408;2022-11-20T08:23:13;14.63;;;13.00;;
59207;SDS011;44977;53.132;6.408;2022-11-20T08:28:14;18.27;;;14.77;;
59207;SDS011;44977;53.132;6.408;2022-11-20T08:33:15;15.88;;;13.65;;
59207;SDS011;44977;53.132;6.408;2022-11-20T08:38:17;17.63;;;13.73;;
59207;SDS011;44977;53.132;6.408;2022-11-20T08:43:17;15.90;;;13.70;;
59207;SDS011;44977;53.132;6.408;2022-11-20T08:48:18;16.98;;;13.75;;
59207;SDS011;44977;53.132;6.408;2022-11-20T08:53:19;16.83;;;13.38;;
59207;SDS011;44977;53.132;6.408;2022-11-20T08:58:20;15.90;;;13.30;;
59207;SDS011;44977;53.132;6.408;2022-11-20T09:03:20;15.85;;;13.63;;
59207;SDS011;44977;53.132;6.408;2022-11-20T09:08:21;16.02;;;13.10;;
59207;SDS011;44977;53.132;6.408;2022-11-20T09:13:22;14.43;;;11.88;;
59207;SDS011;44977;53.132;6.408;2022-11-20T09:18:23;14.73;;;12.70;;
59207;SDS011;44977;53.132;6.408;2022-11-20T09:23:25;15.15;;;12.60;;
59207;SDS011;44977;53.132;6.408;2022-11-20T09:28:26;14.45;;;12.10;;
59207;SDS011;44977;53.132;6.408;2022-11-20T09:33:27;15.93;;;12.55;;
59207;SDS011;44977;53.132;6.408;2022-11-20T09:38:28;15.60;;;13.20;;
59207;SDS011;44977;53.132;6.408;2022-11-20T09:43:37;13.77;;;11.98;;
59207;SDS011;44977;53.132;6.408;2022-11-20T09:49:05;14.77;;;12.18;;
59207;SDS011;44977;53.132;6.408;2022-11-20T09:59:33;16.73;;;13.40;;
59207;SDS011;44977;53.132;6.408;2022-11-20T10:04:38;15.45;;;12.73;;
59207;SDS011;44977;53.132;6.408;2022-11-20T10:09:49;15.60;;;12.80;;
59207;SDS011;44977;53.132;6.408;2022-11-20T10:14:56;17.35;;;14.30;;
59207;SDS011;44977;53.132;6.408;2022-11-20T10:20:20;18.30;;;14.07;;
59207;SDS011;44977;53.132;6.408;2022-11-20T10:25:43;16.48;;;13.68;;
59207;SDS011;44977;53.132;6.408;2022-11-20T10:31:08;17.40;;;13.73;;
59207;SDS011;44977;53.132;6.408;2022-11-20T10:36:22;14.65;;;11.88;;
59207;SDS011;44977;53.132;6.408;2022-11-20T10:41:28;15.07;;;12.68;;
59207;SDS011;44977;53.132;6.408;2022-11-20T10:46:37;14.20;;;11.95;;
59207;SDS011;44977;53.132;6.408;2022-11-20T10:56:51;15.60;;;12.17;;
59207;SDS011;44977;53.132;6.408;2022-11-20T11:01:53;14.98;;;12.32;;
59207;SDS011;44977;53.132;6.408;2022-11-20T11:06:54;14.30;;;11.63;;
59207;SDS011;44977;53.132;6.408;2022-11-20T11:12:17;14.77;;;11.32;;
59207;SDS011;44977;53.132;6.408;2022-11-20T11:22:31;13.75;;;10.82;;
59207;SDS011;44977;53.132;6.408;2022-11-20T11:27:34;12.82;;;10.27;;
59207;SDS011;44977;53.132;6.408;2022-11-20T11:32:45;13.18;;;10.60;;
59207;SDS011;44977;53.132;6.408;2022-11-20T11:37:46;12.65;;;9.57;;
59207;SDS011;44977;53.132;6.408;2022-11-20T11:42:58;12.40;;;9.85;;
59207;SDS011;44977;53.132;6.408;2022-11-20T11:48:02;12.52;;;9.40;;
59207;SDS011;44977;53.132;6.408;2022-11-20T11:53:13;11.32;;;8.70;;
59207;SDS011;44977;53.132;6.408;2022-11-20T12:03:38;10.05;;;7.13;;
59207;SDS011;44977;53.132;6.408;2022-11-20T12:08:53;10.80;;;7.63;;
59207;SDS011;44977;53.132;6.408;2022-11-20T12:19:19;11.07;;;8.07;;
59207;SDS011;44977;53.132;6.408;2022-11-20T12:29:41;9.75;;;6.78;;
59207;SDS011;44977;53.132;6.408;2022-11-20T12:35:11;9.73;;;6.40;;
59207;SDS011;44977;53.132;6.408;2022-11-20T12:40:22;9.52;;;6.63;;
59207;SDS011;44977;53.132;6.408;2022-11-20T12:46:06;9.23;;;6.68;;
59207;SDS011;44977;53.132;6.408;2022-11-20T13:01:58;9.65;;;6.95;;
59207;SDS011;44977;53.132;6.408;2022-11-20T13:07:19;9.52;;;6.97;;
59207;SDS011;44977;53.132;6.408;2022-11-20T13:13:04;10.13;;;7.07;;
59207;SDS011;44977;53.132;6.408;2022-11-20T13:22:58;11.15;;;7.60;;
59207;SDS011;44977;53.132;6.408;2022-11-20T13:28:00;9.60;;;6.65;;
59207;SDS011;44977;53.132;6.408;2022-11-20T13:33:29;9.88;;;6.90;;
59207;SDS011;44977;53.132;6.408;2022-11-20T13:38:41;9.77;;;7.20;;
59207;SDS011;44977;53.132;6.408;2022-11-20T13:43:47;10.23;;;7.70;;
59207;SDS011;44977;53.132;6.408;2022-11-20T13:48:49;11.40;;;8.63;;
59207;SDS011;44977;53.132;6.408;2022-11-20T14:04:58;10.23;;;6.88;;
59207;SDS011;44977;53.132;6.408;2022-11-20T14:10:00;9.48;;;6.50;;
59207;SDS011;44977;53.132;6.408;2022-11-20T14:15:01;9.68;;;6.88;;
59207;SDS011;44977;53.132;6.408;2022-11-20T14:20:05;9.70;;;6.82;;
59207;SDS011;44977;53.132;6.408;2022-11-20T14:30:18;10.23;;;7.15;;
59207;SDS011;44977;53.132;6.408;2022-11-20T14:35:25;9.63;;;6.65;;
59207;SDS011;44977;53.132;6.408;2022-11-20T14:40:30;9.85;;;6.95;;
59207;SDS011;44977;53.132;6.408;2022-11-20T14:45:35;11.25;;;8.35;;
59207;SDS011;44977;53.132;6.408;2022-11-20T14:50:37;12.05;;;8.20;;
59207;SDS011;44977;53.132;6.408;2022-11-20T14:55:39;12.60;;;8.82;;
59207;SDS011;44977;53.132;6.408;2022-11-20T15:00:41;11.10;;;8.23;;
59207;SDS011;44977;53.132;6.408;2022-11-20T15:05:46;11.70;;;8.48;;
59207;SDS011;44977;53.132;6.408;2022-11-20T15:10:48;10.60;;;7.90;;
59207;SDS011;44977;53.132;6.408;2022-11-20T15:15:54;11.88;;;8.93;;
59207;SDS011;44977;53.132;6.408;2022-11-20T15:20:56;11.00;;;8.43;;
59207;SDS011;44977;53.132;6.408;2022-11-20T15:26:00;10.88;;;8.38;;
59207;SDS011;44977;53.132;6.408;2022-11-20T15:31:01;10.88;;;8.25;;
59207;SDS011;44977;53.132;6.408;2022-11-20T15:36:03;11.93;;;8.68;;
59207;SDS011;44977;53.132;6.408;2022-11-20T15:41:04;9.90;;;7.78;;
59207;SDS011;44977;53.132;6.408;2022-11-20T15:46:06;10.65;;;7.93;;
59207;SDS011;44977;53.132;6.408;2022-11-20T15:56:15;13.10;;;9.45;;
59207;SDS011;44977;53.132;6.408;2022-11-20T16:01:16;14.00;;;10.27;;
59207;SDS011;44977;53.132;6.408;2022-11-20T16:06:19;14.18;;;11.68;;
59207;SDS011;44977;53.132;6.408;2022-11-20T16:11:20;13.18;;;11.02;;
59207;SDS011;44977;53.132;6.408;2022-11-20T16:16:21;14.07;;;11.35;;
59207;SDS011;44977;53.132;6.408;2022-11-20T16:21:26;14.38;;;11.57;;
59207;SDS011;44977;53.132;6.408;2022-11-20T16:26:31;14.65;;;11.93;;
59207;SDS011;44977;53.132;6.408;2022-11-20T16:31:33;16.00;;;13.18;;
59207;SDS011;44977;53.132;6.408;2022-11-20T16:36:34;16.88;;;13.50;;
59207;SDS011;44977;53.132;6.408;2022-11-20T16:41:35;18.27;;;15.55;;
59207;SDS011;44977;53.132;6.408;2022-11-20T16:46:36;24.90;;;17.20;;
59207;SDS011;44977;53.132;6.408;2022-11-20T16:51:38;16.88;;;15.02;;
59207;SDS011;44977;53.132;6.408;2022-11-20T16:56:38;16.55;;;14.38;;
59207;SDS011;44977;53.132;6.408;2022-11-20T17:01:39;19.92;;;16.15;;
59207;SDS011;44977;53.132;6.408;2022-11-20T17:06:42;16.75;;;14.38;;
59207;SDS011;44977;53.132;6.408;2022-11-20T17:11:43;18.92;;;14.23;;
59207;SDS011;44977;53.132;6.408;2022-11-20T17:16:44;15.55;;;13.38;;
59207;SDS011;44977;53.132;6.408;2022-11-20T17:21:45;16.73;;;13.60;;
59207;SDS011;44977;53.132;6.408;2022-11-20T17:26:47;18.50;;;15.10;;
59207;SDS011;44977;53.132;6.408;2022-11-20T17:31:48;17.55;;;14.80;;
59207;SDS011;44977;53.132;6.408;2022-11-20T17:36:48;18.83;;;15.30;;
59207;SDS011;44977;53.132;6.408;2022-11-20T17:41:49;16.00;;;14.30;;
59207;SDS011;44977;53.132;6.408;2022-11-20T17:47:10;18.60;;;14.77;;
59207;SDS011;44977;53.132;6.408;2022-11-20T17:52:11;16.80;;;14.23;;
59207;SDS011;44977;53.132;6.408;2022-11-20T17:57:11;17.33;;;14.95;;
59207;SDS011;44977;53.132;6.408;2022-11-20T18:02:31;17.27;;;14.50;;
59207;SDS011;44977;53.132;6.408;2022-11-20T18:07:31;16.50;;;13.68;;
59207;SDS011;44977;53.132;6.408;2022-11-20T18:12:32;17.27;;;15.23;;
59207;SDS011;44977;53.132;6.408;2022-11-20T18:17:33;19.70;;;16.45;;
59207;SDS011;44977;53.132;6.408;2022-11-20T18:22:35;18.80;;;15.82;;
59207;SDS011;44977;53.132;6.408;2022-11-20T18:27:36;18.77;;;16.20;;
59207;SDS011;44977;53.132;6.408;2022-11-20T18:32:37;18.45;;;15.48;;
59207;SDS011;44977;53.132;6.408;2022-11-20T18:37:38;18.30;;;15.18;;
59207;SDS011;44977;53.132;6.408;2022-11-20T18:42:39;19.92;;;16.23;;
59207;SDS011;44977;53.132;6.408;2022-11-20T18:47:58;19.50;;;16.20;;
59207;SDS011;44977;53.132;6.408;2022-11-20T18:52:59;17.98;;;15.90;;
59207;SDS011;44977;53.132;6.408;2022-11-20T18:57:59;18.30;;;15.32;;
59207;SDS011;44977;53.132;6.408;2022-11-20T19:03:00;17.65;;;15.75;;
59207;SDS011;44977;53.132;6.408;2022-11-20T19:08:01;19.08;;;17.05;;
59207;SDS011;44977;53.132;6.408;2022-11-20T19:13:01;18.02;;;15.55;;
59207;SDS011;44977;53.132;6.408;2022-11-20T19:18:03;19.35;;;16.13;;
59207;SDS011;44977;53.132;6.408;2022-11-20T19:23:04;21.45;;;18.20;;
59207;SDS011;44977;53.132;6.408;2022-11-20T19:28:04;23.13;;;19.10;;
59207;SDS011;44977;53.132;6.408;2022-11-20T19:33:05;25.48;;;21.98;;
59207;SDS011;44977;53.132;6.408;2022-11-20T19:38:06;23.77;;;21.23;;
59207;SDS011;44977;53.132;6.408;2022-11-20T19:43:07;22.55;;;19.20;;
59207;SDS011;44977;53.132;6.408;2022-11-20T19:48:08;22.67;;;18.27;;
59207;SDS011;44977;53.132;6.408;2022-11-20T19:53:09;22.30;;;18.45;;
59207;SDS011;44977;53.132;6.408;2022-11-20T19:58:10;24.05;;;20.55;;
59207;SDS011;44977;53.132;6.408;2022-11-20T20:03:11;23.75;;;19.88;;
59207;SDS011;44977;53.132;6.408;2022-11-20T20:08:12;22.90;;;19.92;;
59207;SDS011;44977;53.132;6.408;2022-11-20T20:13:12;22.75;;;19.73;;
59207;SDS011;44977;53.132;6.408;2022-11-20T20:18:13;25.05;;;21.70;;
59207;SDS011;44977;53.132;6.408;2022-11-20T20:23:14;26.08;;;21.63;;
59207;SDS011;44977;53.132;6.408;2022-11-20T20:28:15;22.77;;;19.73;;
59207;SDS011;44977;53.132;6.408;2022-11-20T20:33:16;23.02;;;20.17;;
59207;SDS011;44977;53.132;6.408;2022-11-20T20:38:16;24.00;;;21.15;;
59207;SDS011;44977;53.132;6.408;2022-11-20T20:43:17;22.90;;;20.48;;
59207;SDS011;44977;53.132;6.408;2022-11-20T20:48:19;23.13;;;20.30;;
59207;SDS011;44977;53.132;6.408;2022-11-20T20:53:21;23.13;;;20.02;;
59207;SDS011;44977;53.132;6.408;2022-11-20T20:58:22;24.30;;;21.13;;
59207;SDS011;44977;53.132;6.408;2022-11-20T21:03:23;24.48;;;20.98;;
59207;SDS011;44977;53.132;6.408;2022-11-20T21:08:24;25.20;;;21.27;;
59207;SDS011;44977;53.132;6.408;2022-11-20T21:13:27;23.58;;;20.40;;
59207;SDS011;44977;53.132;6.408;2022-11-20T21:18:28;25.38;;;21.67;;
59207;SDS011;44977;53.132;6.408;2022-11-20T21:23:30;28.05;;;22.38;;
59207;SDS011;44977;53.132;6.408;2022-11-20T21:28:32;23.92;;;20.95;;
59207;SDS011;44977;53.132;6.408;2022-11-20T21:33:34;24.33;;;21.48;;
59207;SDS011;44977;53.132;6.408;2022-11-20T21:38:39;23.83;;;20.33;;
59207;SDS011;44977;53.132;6.408;2022-11-20T21:43:40;25.25;;;21.45;;
59207;SDS011;44977;53.132;6.408;2022-11-20T21:48:44;24.10;;;20.63;;
59207;SDS011;44977;53.132;6.408;2022-11-20T21:53:46;24.90;;;21.00;;
59207;SDS011;44977;53.132;6.408;2022-11-20T21:58:47;24.15;;;20.90;;
59207;SDS011;44977;53.132;6.408;2022-11-20T22:03:49;23.48;;;20.33;;
59207;SDS011;44977;53.132;6.408;2022-11-20T22:08:52;24.20;;;20.60;;
59207;SDS011;44977;53.132;6.408;2022-11-20T22:13:53;24.15;;;20.08;;
59207;SDS011;44977;53.132;6.408;2022-11-20T22:19:15;23.15;;;19.77;;
59207;SDS011;44977;53.132;6.408;2022-11-20T22:24:20;23.25;;;19.40;;
59207;SDS011;44977;53.132;6.408;2022-11-20T22:29:22;24.33;;;21.55;;
59207;SDS011;44977;53.132;6.408;2022-11-20T22:34:22;25.65;;;20.23;;
59207;SDS011;44977;53.132;6.408;2022-11-20T22:39:23;24.60;;;21.10;;
59207;SDS011;44977;53.132;6.408;2022-11-20T22:44:24;25.05;;;21.17;;
59207;SDS011;44977;53.132;6.408;2022-11-20T22:49:24;28.08;;;21.63;;
59207;SDS011;44977;53.132;6.408;2022-11-20T22:54:25;25.63;;;20.55;;
59207;SDS011;44977;53.132;6.408;2022-11-20T22:59:25;23.85;;;21.05;;
59207;SDS011;44977;53.132;6.408;2022-11-20T23:04:26;23.75;;;20.80;;
59207;SDS011;44977;53.132;6.408;2022-11-20T23:09:27;27.23;;;21.85;;
59207;SDS011;44977;53.132;6.408;2022-11-20T23:14:27;28.67;;;22.92;;
59207;SDS011;44977;53.132;6.408;2022-11-20T23:19:28;25.27;;;22.35;;
59207;SDS011;44977;53.132;6.408;2022-11-20T23:24:29;28.55;;;22.33;;
59207;SDS011;44977;53.132;6.408;2022-11-20T23:29:29;26.55;;;22.52;;
59207;SDS011;44977;53.132;6.408;2022-11-20T23:34:30;25.52;;;22.75;;
59207;SDS011;44977;53.132;6.408;2022-11-20T23:39:30;27.05;;;22.48;;
59207;SDS011;44977;53.132;6.408;2022-11-20T23:44:31;27.73;;;22.50;;
59207;SDS011;44977;53.132;6.408;2022-11-20T23:49:32;26.65;;;22.40;;
59207;SDS011;44977;53.132;6.408;2022-11-20T23:54:32;27.73;;;22.73;;
59207;SDS011;44977;53.132;6.408;2022-11-20T23:59:33;25.88;;;21.73;;
